Stacja Pogody
Warszawa Praga-Północ

Szerokość 52°15'43"N Długość 21°01'22"E Wysokość 110m n.p.m.


324 dzień roku.   Do końca pozostalo 41 dni.   Od wczoraj ubyło 3 min. i 2 sek. dnia.
Wschód Słońca 07:05 Górowanie Słońca 11:21 Zachód Słońca 15:37 skorpion
Data juliańska 2458078.611 Odległość Słońca 147778973 km Średn. kątowa Słońca 0,324°
Wschód Księżyca 08:32 Zachód Księżyca 17:18 Wiek Księżyca 1 dni Moon
Widoczność Księżyca 2,12% Odległość Księżyca 404625 km Średn. kątowa Księżyca 0,295°
Dzień krótszy od najdłuższego o: 08:14 Długość dnia 08:32 Imieniny Anatola, Sędzimira, Rafała



  Aktualizacja: 20-11-2017 02:40:01
TEMPERATURA
Aktualnie: 2.3°C →
Temperatura odczuwalna:-1.9°C
Punkt rosy-0.3°C
WIATR
Średnia prędkość: 11.2km/h ↑
Prędkość w podmuchach:13.3km/h
Przepływ w ciągu doby:366.0km
Kierunek wiatru:135°
CIŚNIENIE
Względne:1002.9hPa
Trend ciśnienia:powolny spadek
WILGOTNOŚĆ
Wilgotność względna: 84% ↑
Podstawa chmur1312m
DESZCZ
W ostatniej godzinie: 0.9mm
Dzisiaj:0.6mm
W tym miesiącu:29.4mm
METAR
EPWA 200100Z 24005KT 200V290 9999 SCT011 BKN019 02/00 Q1003 NOSIG
Ostrzeżenia burzowe
Prognoza 12-to godzinna (prawdopodobieństwo 75%):   Niestabilna pogoda, niewielkie opady prognoza





a  a a